Time;durP1;ratioP1;P1;durP2;ratioP2;P2;SDS_P1;SDS_P2;PMS_P1;PMS_P2;Temp;Humidity;BMP_temperature;BMP_pressure;BME280_temperature;BME280_humidity;BME280_pressure;Samples;Min_cycle;Max_cycle;Signal;HPM_P1;HPM_P2
2023/01/13 00:00:33;;;;;;;15.55;5.39;;;;;;;-1.56;71.44;102086.31;453291;116;922532;-73
2023/01/13 00:01:37;;;;;;;16.05;5.09;;;;;;;-1.55;71.50;102081.82;454820;116;922489;-73
2023/01/13 00:02:40;;;;;;;12.28;6.17;;;;;;;-1.55;71.60;102077.33;453723;116;922485;-73
2023/01/13 00:03:43;;;;;;;15.39;5.63;;;;;;;-1.55;71.55;102077.33;448683;118;930449;-73
2023/01/13 00:04:46;;;;;;;16.21;6.49;;;;;;;-1.54;71.52;102075.48;453273;116;922618;-73
2023/01/13 00:05:50;;;;;;;10.69;5.69;;;;;;;-1.55;71.53;102074.66;454931;116;922485;-73
2023/01/13 00:06:53;;;;;;;15.38;5.48;;;;;;;-1.55;71.56;102074.66;454136;116;922575;-73
2023/01/13 00:07:56;;;;;;;13.39;5.45;;;;;;;-1.54;71.55;102076.34;453389;116;930289;-73
2023/01/13 00:08:59;;;;;;;14.72;4.98;;;;;;;-1.55;71.54;102071.98;453876;116;922838;-74
2023/01/13 00:10:02;;;;;;;11.67;5.34;;;;;;;-1.54;71.55;102072.81;448572;116;923089;-73
2023/01/13 00:11:05;;;;;;;13.44;5.21;;;;;;;-1.54;71.53;102073.67;442754;120;922503;-73
2023/01/13 00:12:08;;;;;;;10.90;5.67;;;;;;;-1.54;71.58;102079.02;445521;116;922549;-72
2023/01/13 00:13:11;;;;;;;13.24;5.61;;;;;;;-1.53;71.54;102069.19;448611;117;922524;-73
2023/01/13 00:14:14;;;;;;;15.44;5.66;;;;;;;-1.52;71.57;102084.28;447618;116;922453;-73
2023/01/13 00:15:18;;;;;;;16.47;6.14;;;;;;;-1.52;71.69;102070.91;454927;116;922541;-73
2023/01/13 00:16:21;;;;;;;12.96;5.41;;;;;;;-1.51;71.58;102075.30;447025;116;922557;-73
2023/01/13 00:17:24;;;;;;;14.97;5.84;;;;;;;-1.51;71.64;102073.49;447169;118;922633;-74
2023/01/13 00:18:27;;;;;;;20.44;5.94;;;;;;;-1.50;71.64;102064.52;455034;116;922842;-74
2023/01/13 00:19:30;;;;;;;19.17;5.69;;;;;;;-1.49;71.66;102063.53;456606;116;922977;-74
2023/01/13 00:20:34;;;;;;;22.92;6.13;;;;;;;-1.48;71.51;102067.92;449951;116;930333;-74
2023/01/13 00:21:37;;;;;;;14.91;5.81;;;;;;;-1.48;71.62;102062.58;452988;116;922883;-73
2023/01/13 00:22:40;;;;;;;11.24;4.58;;;;;;;-1.47;71.63;102077.67;457009;116;922528;-74
2023/01/13 00:23:44;;;;;;;16.12;5.83;;;;;;;-1.45;71.56;102066.88;454360;116;922574;-73
2023/01/13 00:24:47;;;;;;;10.97;5.08;;;;;;;-1.43;71.52;102068.48;457002;116;922500;-73
2023/01/13 00:25:50;;;;;;;17.95;5.31;;;;;;;-1.42;71.64;102070.20;455739;116;922484;-72
2023/01/13 00:26:53;;;;;;;13.11;6.12;;;;;;;-1.39;71.56;102070.02;450105;116;922930;-74
2023/01/13 00:27:56;;;;;;;12.49;5.63;;;;;;;-1.37;71.54;102070.75;456501;116;922537;-72
2023/01/13 00:28:59;;;;;;;15.19;5.55;;;;;;;-1.35;71.52;102066.16;454668;116;922501;-73
2023/01/13 00:30:03;;;;;;;19.32;6.41;;;;;;;-1.33;71.46;102066.94;457113;116;923401;-73
2023/01/13 00:31:10;;;;;;;16.06;5.69;;;;;;;-1.31;71.47;102066.80;456872;116;922561;-74
2023/01/13 00:32:13;;;;;;;9.26;5.02;;;;;;;-1.30;71.56;102061.36;451490;116;923027;-73
2023/01/13 00:33:16;;;;;;;15.07;5.53;;;;;;;-1.28;71.37;102063.95;451023;116;922720;-73
2023/01/13 00:34:19;;;;;;;15.77;5.37;;;;;;;-1.27;71.34;102061.14;449867;115;922466;-72
2023/01/13 00:35:22;;;;;;;15.44;5.87;;;;;;;-1.24;71.44;102059.23;449204;118;922523;-72
2023/01/13 00:36:27;;;;;;;15.90;5.63;;;;;;;-1.26;71.28;102054.84;449180;118;922508;-74
2023/01/13 00:37:30;;;;;;;17.19;5.36;;;;;;;-1.24;71.18;102054.74;450295;116;922451;-74
2023/01/13 00:38:34;;;;;;;12.79;4.90;;;;;;;-1.23;71.16;102055.60;455861;116;922470;-73
2023/01/13 00:39:37;;;;;;;14.91;5.64;;;;;;;-1.22;71.13;102057.33;454204;115;922472;-73
2023/01/13 00:40:40;;;;;;;17.87;5.58;;;;;;;-1.20;71.12;102044.67;452926;116;922524;-73
2023/01/13 00:43:23;;;;;;;15.53;5.51;;;;;;;-1.21;71.01;102043.82;456449;116;922647;-73
2023/01/13 00:44:26;;;;;;;20.52;4.96;;;;;;;-1.21;71.06;102042.99;452498;115;922528;-74
2023/01/13 00:45:30;;;;;;;15.86;5.41;;;;;;;-1.23;70.97;102039.55;450519;116;922794;-73
2023/01/13 00:46:33;;;;;;;14.16;6.59;;;;;;;-1.25;70.94;102045.00;457120;116;922516;-74
2023/01/13 00:47:36;;;;;;;18.39;5.97;;;;;;;-1.26;71.07;102036.11;456841;116;922453;-73
2023/01/13 00:48:39;;;;;;;17.07;5.54;;;;;;;-1.26;70.97;102041.45;456737;116;923020;-74
2023/01/13 00:49:42;;;;;;;10.12;5.58;;;;;;;-1.27;70.95;102034.39;457050;115;922490;-73
2023/01/13 00:50:45;;;;;;;12.50;5.28;;;;;;;-1.28;71.05;102038.05;455033;116;922590;-74
2023/01/13 00:51:48;;;;;;;21.15;6.17;;;;;;;-1.26;70.92;102035.25;454251;116;922477;-73
2023/01/13 00:52:51;;;;;;;15.54;5.66;;;;;;;-1.28;70.91;102032.70;450472;116;922693;-73
2023/01/13 00:53:55;;;;;;;14.30;5.19;;;;;;;-1.27;70.89;102034.39;455259;116;922503;-72
2023/01/13 00:54:58;;;;;;;15.37;5.20;;;;;;;-1.27;71.00;102030.88;450528;117;922944;-73
2023/01/13 00:56:06;;;;;;;11.83;4.87;;;;;;;-1.27;71.01;102028.20;449254;118;922597;-73
2023/01/13 00:57:09;;;;;;;15.02;4.88;;;;;;;-1.26;70.90;102033.43;449067;117;923176;-74
2023/01/13 00:58:12;;;;;;;9.63;4.94;;;;;;;-1.26;70.86;102036.11;452947;116;922523;-74
2023/01/13 00:59:15;;;;;;;20.76;5.09;;;;;;;-1.27;70.83;102037.06;452710;116;922569;-74
2023/01/13 01:00:19;;;;;;;19.31;6.64;;;;;;;-1.28;70.81;102038.05;449272;115;922515;-73
2023/01/13 01:01:23;;;;;;;9.79;5.67;;;;;;;-1.29;70.87;102030.98;450249;116;923051;-73
2023/01/13 01:02:26;;;;;;;15.21;6.11;;;;;;;-1.31;70.75;102034.70;449337;116;922470;-74
2023/01/13 01:03:29;;;;;;;12.42;5.49;;;;;;;-1.32;70.89;102036.52;455220;116;922493;-74
2023/01/13 01:04:32;;;;;;;17.33;6.02;;;;;;;-1.32;70.93;102036.52;451996;116;922510;-71
2023/01/13 01:05:35;;;;;;;12.58;5.85;;;;;;;-1.32;70.90;102035.66;449164;118;930628;-74
2023/01/13 01:06:39;;;;;;;19.16;5.96;;;;;;;-1.33;70.80;102034.83;449335;118;922509;-74
2023/01/13 01:07:42;;;;;;;19.88;5.78;;;;;;;-1.34;70.81;102038.45;449532;116;922517;-73
2023/01/13 01:08:45;;;;;;;13.28;4.97;;;;;;;-1.34;70.81;102041.13;449131;118;922879;-72
2023/01/13 01:09:48;;;;;;;11.74;5.25;;;;;;;-1.34;70.93;102034.92;453152;116;922413;-73
2023/01/13 01:11:02;;;;;;;14.70;5.39;;;;;;;-1.36;70.97;102037.69;457018;116;922590;-73
2023/01/13 01:12:05;;;;;;;11.22;5.48;;;;;;;-1.35;71.01;102042.09;449194;117;922529;-73
2023/01/13 01:13:10;;;;;;;9.19;5.22;;;;;;;-1.35;70.86;102038.55;452359;116;923295;-73
2023/01/13 01:14:13;;;;;;;14.12;6.02;;;;;;;-1.37;70.97;102038.64;456921;116;922552;-74
2023/01/13 01:15:16;;;;;;;16.21;6.08;;;;;;;-1.37;70.89;102038.64;454602;116;922691;-73
2023/01/13 01:16:22;;;;;;;10.86;5.64;;;;;;;-1.37;70.91;102033.30;452526;117;922963;-73
2023/01/13 01:17:27;;;;;;;14.71;6.02;;;;;;;-1.37;70.98;102027.94;454219;116;922851;-74
2023/01/13 01:18:30;;;;;;;13.65;6.72;;;;;;;-1.35;71.09;102035.88;450558;116;922510;-74
2023/01/13 01:19:36;;;;;;;12.36;6.18;;;;;;;-1.34;71.00;102037.59;450228;118;922619;-73
2023/01/13 01:20:38;;;;;;;15.33;6.07;;;;;;;-1.34;71.08;102026.89;446442;117;922493;-73
2023/01/13 01:21:41;;;;;;;19.09;6.22;;;;;;;-1.33;71.08;102026.80;444949;119;923640;-73
2023/01/13 01:22:44;;;;;;;12.07;5.50;;;;;;;-1.33;70.95;102033.97;445218;117;922569;-74
2023/01/13 01:23:47;;;;;;;10.34;5.98;;;;;;;-1.33;71.07;102025.94;444953;119;922922;-74
2023/01/13 01:24:50;;;;;;;10.71;6.14;;;;;;;-1.32;70.97;102035.66;445994;117;922507;-73
2023/01/13 01:25:53;;;;;;;11.57;6.21;;;;;;;-1.33;70.94;102034.83;445777;117;922950;-73
2023/01/13 01:26:56;;;;;;;16.47;6.92;;;;;;;-1.32;71.04;102028.48;452558;117;922879;-75
2023/01/13 01:27:59;;;;;;;14.61;6.42;;;;;;;-1.32;70.97;102030.30;449775;117;922603;-73
2023/01/13 01:29:02;;;;;;;10.61;6.04;;;;;;;-1.31;71.06;102022.19;450291;118;922569;-74
2023/01/13 01:30:06;;;;;;;16.61;6.66;;;;;;;-1.31;71.08;102027.53;449452;117;922584;-74
2023/01/13 01:31:13;;;;;;;11.34;5.61;;;;;;;-1.30;70.96;102023.05;445816;117;922571;-74
2023/01/13 01:32:16;;;;;;;16.84;5.96;;;;;;;-1.31;70.99;102032.89;446844;117;930523;-73
2023/01/13 01:33:19;;;;;;;10.44;5.72;;;;;;;-1.31;70.99;102030.20;450715;117;922503;-73
2023/01/13 01:34:22;;;;;;;13.91;5.93;;;;;;;-1.31;71.10;102032.89;452511;117;922861;-73
2023/01/13 01:35:25;;;;;;;12.64;6.08;;;;;;;-1.29;71.02;102035.47;451761;117;922825;-73
2023/01/13 01:36:29;;;;;;;10.12;5.84;;;;;;;-1.30;71.06;102034.61;448791;116;922954;-73
2023/01/13 01:37:32;;;;;;;16.05;6.31;;;;;;;-1.29;71.07;102036.33;440492;119;922673;-73
2023/01/13 01:38:35;;;;;;;13.43;6.72;;;;;;;-1.27;71.19;102031.70;441357;117;930352;-73
2023/01/13 01:39:38;;;;;;;12.04;6.16;;;;;;;-1.24;71.22;102029.80;443097;117;922549;-73
2023/01/13 01:40:41;;;;;;;12.11;5.32;;;;;;;-1.26;71.11;102028.08;444941;119;922591;-73
2023/01/13 01:43:57;;;;;;;21.26;6.21;;;;;;;-1.24;71.10;102036.02;446854;118;923110;-74
2023/01/13 01:44:43;;;;;;;12.31;5.06;;;;;;;-1.22;71.23;102030.56;452053;117;922538;-74
2023/01/13 01:45:46;;;;;;;13.09;5.52;;;;;;;-1.21;71.23;102037.64;450618;117;922543;-74
2023/01/13 01:46:49;;;;;;;10.23;4.90;;;;;;;-1.23;71.17;102034.20;446045;117;922879;-74
2023/01/13 01:47:58;;;;;;;12.31;5.77;;;;;;;-1.24;71.19;102032.48;446024;117;922540;-73
2023/01/13 01:49:20;;;;;;;15.82;6.49;;;;;;;-1.23;71.22;102028.84;441398;120;922666;-73
2023/01/13 01:50:24;;;;;;;16.99;6.05;;;;;;;-1.24;71.37;102033.34;431134;122;922571;-73
2023/01/13 01:51:30;;;;;;;10.02;5.79;;;;;;;-1.22;71.29;102027.89;435050;120;922781;-73
2023/01/13 01:52:37;;;;;;;14.03;5.33;;;;;;;-1.23;71.27;102029.70;434500;122;922766;-73
2023/01/13 01:53:40;;;;;;;14.92;6.27;;;;;;;-1.22;71.35;102018.05;433855;122;922501;-75
2023/01/13 01:54:50;;;;;;;16.61;6.30;;;;;;;-1.23;71.25;102024.36;441909;120;922537;-73
2023/01/13 01:55:54;;;;;;;11.81;5.69;;;;;;;-1.22;71.22;102020.72;438516;120;922568;-72
2023/01/13 01:56:57;;;;;;;13.46;5.61;;;;;;;-1.22;71.32;102020.72;439728;120;922892;-74
2023/01/13 01:58:05;;;;;;;18.42;6.13;;;;;;;-1.22;71.41;102019.86;424939;124;922737;-73
2023/01/13 01:59:08;;;;;;;16.36;5.54;;;;;;;-1.22;71.41;102019.86;434407;121;930508;-74
2023/01/13 02:00:13;;;;;;;18.79;7.06;;;;;;;-1.23;71.20;102018.14;437866;120;922493;-73
2023/01/13 02:01:16;;;;;;;16.30;6.18;;;;;;;-1.23;71.23;102007.44;438796;119;923055;-73
2023/01/13 02:02:21;;;;;;;15.03;5.48;;;;;;;-1.22;71.28;102009.16;438571;120;923706;-74
2023/01/13 02:03:24;;;;;;;12.71;5.04;;;;;;;-1.22;71.26;102007.34;441158;119;922612;-73
2023/01/13 02:04:30;;;;;;;12.96;5.59;;;;;;;-1.21;71.21;102008.20;442977;119;922550;-73
2023/01/13 02:05:34;;;;;;;16.24;5.93;;;;;;;-1.21;71.34;102010.88;434109;122;922601;-74
2023/01/13 02:06:38;;;;;;;13.83;5.51;;;;;;;-1.21;71.26;102013.55;429628;120;922565;-73
2023/01/13 02:07:43;;;;;;;10.68;5.76;;;;;;;-1.20;71.38;102017.92;435885;120;922850;-73
2023/01/13 02:08:46;;;;;;;13.96;5.63;;;;;;;-1.20;71.30;102018.78;431908;121;922668;-74
2023/01/13 02:09:51;;;;;;;11.11;5.49;;;;;;;-1.18;71.47;102024.90;431186;121;922962;-74
2023/01/13 02:10:54;;;;;;;14.34;6.00;;;;;;;-1.15;71.34;102018.46;438247;121;923162;-73
2023/01/13 02:13:21;;;;;;;16.14;6.12;;;;;;;-1.12;71.36;102012.92;434905;121;922556;-75
2023/01/13 02:14:27;;;;;;;16.35;6.40;;;;;;;-1.10;71.36;102021.71;438233;121;922561;-73
2023/01/13 02:15:55;;;;;;;16.57;6.21;;;;;;;-1.09;71.35;102015.37;435641;121;923077;-73
2023/01/13 02:17:04;;;;;;;12.34;5.06;;;;;;;-1.09;71.45;102018.05;433789;122;922888;-74
2023/01/13 02:18:23;;;;;;;10.13;5.91;;;;;;;-1.09;71.31;102010.88;426618;121;922841;-73
2023/01/13 02:19:29;;;;;;;11.99;5.22;;;;;;;-1.09;71.49;102010.88;439331;118;922442;-74
2023/01/13 02:20:51;;;;;;;9.36;5.15;;;;;;;-1.07;71.40;102013.45;437687;118;922577;-74
2023/01/13 02:22:01;;;;;;;12.23;5.08;;;;;;;-1.06;71.58;102013.36;442684;118;922640;-72
2023/01/13 02:24:54;;;;;;;13.17;5.51;;;;;;;-1.06;71.44;102010.69;447572;118;922863;-73
2023/01/13 02:26:13;;;;;;;13.29;5.23;;;;;;;-1.07;71.48;102005.42;439752;120;922574;-74
2023/01/13 02:27:19;;;;;;;14.29;6.26;;;;;;;-1.06;71.49;102015.18;439130;120;922723;-73
2023/01/13 02:31:40;;;;;;;13.28;5.78;;;;;;;-1.05;71.50;102000.84;444769;118;922526;-74
2023/01/13 02:33:18;;;;;;;17.64;5.48;;;;;;;-1.04;71.56;102003.39;423307;118;923049;-74
2023/01/13 02:34:34;;;;;;;15.39;5.92;;;;;;;-1.06;71.65;102002.66;442983;118;922550;-73
2023/01/13 02:35:52;;;;;;;10.25;5.50;;;;;;;-1.08;71.66;102006.38;440759;120;923491;-73
2023/01/13 02:36:59;;;;;;;13.96;5.77;;;;;;;-1.11;71.61;102002.12;440735;120;922522;-74
2023/01/13 02:38:04;;;;;;;15.21;6.33;;;;;;;-1.12;71.67;102002.22;443701;118;922812;-73
2023/01/13 02:39:11;;;;;;;16.12;6.87;;;;;;;-1.12;71.81;102002.22;448553;118;922609;-74
2023/01/13 02:40:18;;;;;;;9.32;5.58;;;;;;;-1.10;71.78;102013.69;446336;118;922475;-74
2023/01/13 02:44:24;;;;;;;10.50;5.81;;;;;;;-1.13;71.74;102001.35;465861;112;922945;-72
2023/01/13 02:45:33;;;;;;;20.04;7.32;;;;;;;-1.12;71.81;102008.42;465185;114;922774;-72
2023/01/13 02:46:46;;;;;;;14.06;6.17;;;;;;;-1.12;71.73;102010.24;465419;114;922916;-74
2023/01/13 02:47:54;;;;;;;13.28;6.65;;;;;;;-1.12;71.87;102000.39;457697;114;922569;-74
2023/01/13 02:48:59;;;;;;;11.67;6.42;;;;;;;-1.14;71.81;101999.63;457327;116;922587;-75
2023/01/13 02:50:06;;;;;;;14.45;6.12;;;;;;;-1.13;71.69;102003.17;457313;116;922481;-74
2023/01/13 02:51:18;;;;;;;13.90;5.74;;;;;;;-1.15;71.72;101995.23;457807;114;922925;-74
2023/01/13 02:52:37;;;;;;;10.94;5.96;;;;;;;-1.15;71.81;101999.73;458460;114;922803;-73
2023/01/13 02:53:50;;;;;;;18.56;6.81;;;;;;;-1.15;71.87;101994.38;438138;119;922846;-74
2023/01/13 02:54:56;;;;;;;16.18;6.33;;;;;;;-1.16;71.78;101995.36;437990;121;923056;-74
2023/01/13 02:56:02;;;;;;;11.02;6.70;;;;;;;-1.16;71.93;101992.69;460397;114;922676;-74
2023/01/13 02:57:08;;;;;;;14.29;6.54;;;;;;;-1.19;71.95;101988.39;465402;114;922801;-73
2023/01/13 02:58:14;;;;;;;10.81;5.84;;;;;;;-1.19;71.92;101995.55;461639;114;923603;-75
2023/01/13 02:59:19;;;;;;;8.85;5.68;;;;;;;-1.19;72.03;101991.06;457353;116;923013;-74
2023/01/13 03:00:23;;;;;;;16.24;6.73;;;;;;;-1.19;71.93;101995.55;457364;116;922917;-74
2023/01/13 03:01:26;;;;;;;12.21;6.42;;;;;;;-1.19;71.97;101984.85;457477;116;922482;-73
2023/01/13 03:02:29;;;;;;;15.27;6.63;;;;;;;-1.19;72.11;101985.71;457517;115;922638;-73
2023/01/13 03:03:32;;;;;;;11.46;5.70;;;;;;;-1.19;72.03;101987.53;457732;113;922534;-75
2023/01/13 03:04:47;;;;;;;12.00;5.73;;;;;;;-1.17;72.20;101996.32;457702;114;922552;-74
2023/01/13 03:05:57;;;;;;;10.07;5.97;;;;;;;-1.18;72.17;101994.59;457396;116;922536;-75
2023/01/13 03:07:06;;;;;;;11.39;6.43;;;;;;;-1.20;72.11;101985.80;456964;115;922575;-75
2023/01/13 03:08:21;;;;;;;16.12;6.23;;;;;;;-1.22;72.16;101983.27;460081;113;923134;-74
2023/01/13 03:09:31;;;;;;;17.77;6.38;;;;;;;-1.21;72.20;101984.12;458777;113;923401;-72
2023/01/13 03:10:49;;;;;;;10.98;6.16;;;;;;;-1.22;72.24;101985.94;462454;114;922496;-73
2023/01/13 03:12:16;;;;;;;10.65;5.54;;;;;;;-1.22;72.39;101987.75;464845;114;922660;-75
2023/01/13 03:13:41;;;;;;;13.17;6.41;;;;;;;-1.23;72.35;101984.22;457361;114;922570;-73
2023/01/13 03:14:50;;;;;;;10.96;6.36;;;;;;;-1.24;72.51;101986.98;457749;113;922540;-73
2023/01/13 03:16:06;;;;;;;10.68;5.40;;;;;;;-1.26;72.62;101979.06;440281;119;922839;-74
2023/01/13 03:17:13;;;;;;;12.52;6.59;;;;;;;-1.27;72.57;101980.88;457854;114;922670;-73
2023/01/13 03:18:37;;;;;;;11.15;5.74;;;;;;;-1.27;72.58;101977.37;457570;114;923035;-75
2023/01/13 03:19:59;;;;;;;16.53;6.49;;;;;;;-1.17;72.80;101986.48;484733;109;946933;-73
2023/01/13 03:21:20;;;;;;;9.76;6.04;;;;;;;-1.28;72.78;101983.67;470339;111;922562;-75
2023/01/13 03:22:33;;;;;;;9.87;6.19;;;;;;;-1.27;72.85;101988.07;471187;111;923098;-74
2023/01/13 03:23:42;;;;;;;13.56;5.92;;;;;;;-1.26;72.81;101987.94;465063;113;922496;-74
2023/01/13 03:24:55;;;;;;;14.47;7.84;;;;;;;-1.27;72.86;101988.90;464644;114;922558;-73
2023/01/13 03:26:10;;;;;;;11.03;5.36;;;;;;;-1.24;72.87;101984.31;464849;114;923110;-73
2023/01/13 03:27:26;;;;;;;13.76;6.41;;;;;;;-1.23;72.95;101980.68;465413;114;922463;-73
2023/01/13 03:28:32;;;;;;;19.51;7.32;;;;;;;-1.23;72.93;101984.22;464767;114;922543;-74
2023/01/13 03:29:51;;;;;;;10.86;5.41;;;;;;;-1.22;72.90;101979.73;464169;114;922522;-73
2023/01/13 03:30:58;;;;;;;9.26;5.06;;;;;;;-1.21;73.03;101981.45;461263;115;923268;-74
2023/01/13 03:32:23;;;;;;;9.84;6.40;;;;;;;-1.21;73.01;101984.95;461227;114;922635;-73
2023/01/13 03:33:32;;;;;;;10.96;5.99;;;;;;;-1.19;73.07;101983.03;464108;114;922551;-72
2023/01/13 03:34:53;;;;;;;10.77;6.30;;;;;;;-1.16;73.09;101984.66;465607;113;922501;-73
2023/01/13 03:36:00;;;;;;;11.99;5.78;;;;;;;-1.15;73.12;101991.70;457418;116;922523;-74
2023/01/13 03:37:07;;;;;;;16.28;6.99;;;;;;;-1.14;73.02;101983.58;457433;116;922613;-74
2023/01/13 03:38:16;;;;;;;9.50;5.59;;;;;;;-1.13;73.02;101989.79;459190;114;923388;-75
2023/01/13 03:39:23;;;;;;;10.56;5.50;;;;;;;-1.13;72.99;101987.11;461180;115;922607;-73
2023/01/13 03:40:30;;;;;;;9.25;6.28;;;;;;;-1.12;73.08;101983.48;460962;113;922721;-74
2023/01/13 03:41:40;;;;;;;12.50;6.32;;;;;;;-1.10;72.98;101992.27;461244;115;922636;-74
2023/01/13 03:44:20;;;;;;;7.85;5.31;;;;;;;-1.11;72.96;101985.20;461164;114;922596;-72
2023/01/13 03:45:24;;;;;;;12.77;5.99;;;;;;;-0.99;73.05;101981.65;475629;110;947139;-74
2023/01/13 03:47:00;;;;;;;8.64;5.31;;;;;;;-1.10;73.02;101986.92;465534;114;922545;-73
2023/01/13 03:48:07;;;;;;;10.74;5.38;;;;;;;-1.12;72.95;101986.16;444778;116;922655;-75
2023/01/13 03:49:20;;;;;;;14.66;5.16;;;;;;;-1.01;73.07;101981.78;477206;110;946898;-72
2023/01/13 03:50:27;;;;;;;7.88;4.43;;;;;;;-1.12;73.18;101991.51;465556;114;922515;-73
2023/01/13 03:51:32;;;;;;;8.72;4.89;;;;;;;-1.12;73.10;101983.48;465421;114;922489;-74
2023/01/13 03:52:38;;;;;;;10.16;4.60;;;;;;;-1.10;73.24;101981.56;459077;114;922581;-72
2023/01/13 03:53:51;;;;;;;10.57;5.31;;;;;;;-1.09;73.18;101985.93;449129;116;922476;-74
2023/01/13 03:54:57;;;;;;;10.06;5.24;;;;;;;-1.07;73.28;101981.34;448342;118;922508;-74
2023/01/13 03:56:10;;;;;;;7.20;4.32;;;;;;;-1.06;73.14;101983.92;454437;116;922523;-73
2023/01/13 03:57:16;;;;;;;10.21;5.43;;;;;;;-1.04;73.06;101975.76;455101;116;922656;-74
2023/01/13 03:58:32;;;;;;;12.33;5.21;;;;;;;-1.04;73.15;101981.97;451800;116;922617;-72
2023/01/13 03:59:39;;;;;;;7.25;4.83;;;;;;;-1.02;73.15;101979.20;447798;118;922639;-74
2023/01/13 04:00:48;;;;;;;10.98;5.38;;;;;;;-1.00;73.08;101987.99;450975;116;922648;-74
2023/01/13 04:01:55;;;;;;;6.87;4.96;;;;;;;-1.00;73.10;101980.83;455096;116;922468;-72
2023/01/13 04:03:02;;;;;;;6.61;4.61;;;;;;;-0.97;73.12;101990.44;453484;116;922449;-73
2023/01/13 04:04:08;;;;;;;8.28;5.47;;;;;;;-0.96;73.14;101984.13;448236;118;922617;-75
2023/01/13 04:05:12;;;;;;;8.97;5.55;;;;;;;-0.95;72.98;101978.68;448227;118;922629;-73
2023/01/13 04:06:22;;;;;;;12.61;6.05;;;;;;;-0.94;72.95;101988.40;453880;116;922556;-75
2023/01/13 04:07:37;;;;;;;7.22;4.97;;;;;;;-0.93;73.05;101978.55;454965;116;926240;-74
2023/01/13 04:08:50;;;;;;;8.56;5.38;;;;;;;-0.93;72.95;101978.55;444150;117;922669;-74
2023/01/13 04:09:56;;;;;;;10.94;6.11;;;;;;;-0.93;72.93;101986.58;449146;117;922593;-74
2023/01/13 04:11:12;;;;;;;9.15;4.70;;;;;;;-0.92;72.93;101988.30;451370;116;922508;-73
2023/01/13 04:14:02;;;;;;;10.91;5.26;;;;;;;-0.92;72.92;101977.59;452072;117;922835;-73
2023/01/13 04:15:06;;;;;;;7.30;5.42;;;;;;;-0.92;73.05;101980.27;452110;117;923583;-73
2023/01/13 04:16:11;;;;;;;10.04;6.48;;;;;;;-0.92;73.00;101980.27;454070;115;922892;-73
2023/01/13 04:17:15;;;;;;;9.38;5.51;;;;;;;-0.92;72.89;101986.48;457533;114;922820;-74
2023/01/13 04:18:21;;;;;;;6.49;5.02;;;;;;;-0.93;72.97;101984.77;454820;115;923228;-73
2023/01/13 04:19:32;;;;;;;8.18;5.36;;;;;;;-0.83;73.00;101982.33;477172;110;946852;-74
2023/01/13 04:20:35;;;;;;;7.58;5.42;;;;;;;-0.93;72.89;101990.12;465610;113;922371;-73
2023/01/13 04:21:38;;;;;;;11.79;4.85;;;;;;;-0.91;72.88;101992.70;464045;112;930558;-74
2023/01/13 04:22:41;;;;;;;9.83;4.71;;;;;;;-0.90;73.04;101994.42;456236;114;922597;-75
2023/01/13 04:23:44;;;;;;;8.55;5.09;;;;;;;-0.88;72.93;101995.15;457221;116;922516;-74
2023/01/13 04:24:47;;;;;;;8.73;5.54;;;;;;;-0.87;72.91;101988.83;457562;116;922659;-73
2023/01/13 04:25:51;;;;;;;11.81;5.68;;;;;;;-0.85;73.00;101994.95;457479;116;922547;-75
2023/01/13 04:26:55;;;;;;;8.13;4.89;;;;;;;-0.85;72.96;101993.14;455799;114;922682;-73
2023/01/13 04:27:58;;;;;;;10.37;5.38;;;;;;;-0.84;72.87;101993.99;455902;116;922593;-74
2023/01/13 04:29:01;;;;;;;8.17;5.56;;;;;;;-0.83;72.99;101995.72;457663;115;922704;-74
2023/01/13 04:30:05;;;;;;;9.62;4.99;;;;;;;-0.81;72.85;101999.13;457672;115;922920;-74
2023/01/13 04:31:08;;;;;;;10.82;4.92;;;;;;;-0.80;72.97;101995.48;457470;115;923038;-74
2023/01/13 04:32:11;;;;;;;5.82;4.85;;;;;;;-0.77;72.88;102005.14;455437;114;922703;-73
2023/01/13 04:33:16;;;;;;;7.31;5.04;;;;;;;-0.78;72.86;101996.25;456683;114;922523;-75
2023/01/13 04:34:19;;;;;;;8.11;5.18;;;;;;;-0.74;72.92;101999.55;457440;115;922681;-75
2023/01/13 04:35:22;;;;;;;7.53;4.26;;;;;;;-0.73;72.83;101994.09;457631;115;922530;-74
2023/01/13 04:36:28;;;;;;;11.88;5.27;;;;;;;-0.72;72.90;101994.96;457282;114;922470;-74
2023/01/13 04:37:31;;;;;;;7.26;5.35;;;;;;;-0.70;72.87;101995.69;455112;114;922567;-73
2023/01/13 04:38:34;;;;;;;8.01;5.08;;;;;;;-0.70;72.71;101993.02;457101;114;922514;-74
2023/01/13 04:39:37;;;;;;;7.49;4.76;;;;;;;-0.69;72.79;102000.09;453663;116;922623;-74
2023/01/13 04:40:41;;;;;;;6.89;4.96;;;;;;;-0.70;72.67;102001.91;452356;116;922613;-73
2023/01/13 04:42:01;;;;;;;6.94;5.70;;;;;;;-0.69;72.65;101995.59;456009;116;922660;-74
2023/01/13 04:43:04;;;;;;;10.89;4.98;;;;;;;-0.69;72.74;102003.63;456405;114;923055;-75
2023/01/13 04:44:07;;;;;;;8.13;5.08;;;;;;;-0.68;72.74;102004.48;457445;115;923183;-74
2023/01/13 04:45:10;;;;;;;7.49;4.50;;;;;;;-0.69;72.57;102008.98;456784;116;922593;-73
2023/01/13 04:46:14;;;;;;;10.78;4.96;;;;;;;-0.69;72.57;102006.30;444690;116;922961;-75
2023/01/13 04:47:17;;;;;;;7.94;5.00;;;;;;;-0.69;72.65;102011.66;452624;114;922950;-74
2023/01/13 04:48:20;;;;;;;8.24;5.32;;;;;;;-0.69;72.61;102014.34;457103;116;922566;-73
2023/01/13 04:49:23;;;;;;;8.41;5.79;;;;;;;-0.69;72.55;102016.16;453338;115;922597;-74
2023/01/13 04:50:26;;;;;;;8.62;5.31;;;;;;;-0.69;72.55;102016.16;455585;116;922512;-72
2023/01/13 04:51:29;;;;;;;7.29;5.26;;;;;;;-0.68;72.47;102015.20;457054;116;922459;-73
2023/01/13 04:52:32;;;;;;;10.72;4.68;;;;;;;-0.67;72.46;102016.92;454241;115;921940;-72
2023/01/13 04:53:35;;;;;;;5.99;4.48;;;;;;;-0.66;72.56;102013.28;458054;113;922052;-73
2023/01/13 04:54:38;;;;;;;11.60;5.55;;;;;;;-0.66;72.39;102019.47;449708;113;922336;-73
2023/01/13 04:55:41;;;;;;;7.91;5.04;;;;;;;-0.66;72.44;102015.95;455110;116;922286;-73
2023/01/13 04:56:44;;;;;;;7.22;4.33;;;;;;;-0.66;72.44;102015.95;458195;115;922375;-75
2023/01/13 04:57:48;;;;;;;7.41;4.79;;;;;;;-0.66;72.51;102014.11;457718;114;922590;-74
2023/01/13 04:58:51;;;;;;;9.71;5.45;;;;;;;-0.64;72.50;102022.05;457595;115;922325;-75
2023/01/13 04:59:54;;;;;;;10.30;5.31;;;;;;;-0.65;72.36;102025.68;455141;114;922710;-74
2023/01/13 05:00:59;;;;;;;6.39;5.26;;;;;;;-0.66;72.36;102018.64;456609;116;922991;-75
2023/01/13 05:02:02;;;;;;;9.61;4.22;;;;;;;-0.67;72.41;102012.42;449747;118;922936;-73
2023/01/13 05:03:05;;;;;;;8.30;5.75;;;;;;;-0.67;72.37;102017.77;456858;114;922638;-73
2023/01/13 05:04:10;;;;;;;6.64;4.66;;;;;;;-0.68;72.28;102016.06;455664;116;922555;-75
2023/01/13 05:05:13;;;;;;;8.12;4.52;;;;;;;-0.67;72.29;102015.09;455168;116;922645;-73
2023/01/13 05:06:16;;;;;;;6.56;4.26;;;;;;;-0.67;72.30;102025.81;455238;116;922497;-74
2023/01/13 05:07:19;;;;;;;10.07;4.17;;;;;;;-0.67;72.27;102015.09;455304;115;922717;-72
2023/01/13 05:08:22;;;;;;;8.12;5.27;;;;;;;-0.67;72.14;102023.13;456776;114;923089;-73
2023/01/13 05:09:25;;;;;;;7.47;5.03;;;;;;;-0.67;72.10;102019.59;454771;116;922869;-74
2023/01/13 05:10:28;;;;;;;9.86;5.46;;;;;;;-0.67;72.22;102024.95;448109;118;922536;-74
2023/01/13 05:16:59;;;;;;;6.97;4.28;;;;;;;-0.70;72.21;102017.97;449574;118;922439;-73
2023/01/13 05:18:03;;;;;;;7.74;4.69;;;;;;;-0.71;72.23;102024.28;452388;114;922595;-72
2023/01/13 05:19:06;;;;;;;8.08;4.72;;;;;;;-0.71;72.23;102021.61;454283;114;930518;-73
2023/01/13 05:20:11;;;;;;;5.16;4.29;;;;;;;-0.71;72.22;102029.64;449152;116;922396;-74
2023/01/13 05:25:21;;;;;;;9.24;5.07;;;;;;;-0.71;72.07;102028.78;451436;116;922721;-74
2023/01/13 05:26:24;;;;;;;10.88;4.29;;;;;;;-0.71;72.18;102023.42;450840;117;922400;-74
2023/01/13 05:27:28;;;;;;;6.89;4.19;;;;;;;-0.73;72.17;102020.02;454594;116;922306;-72
2023/01/13 05:28:33;;;;;;;7.49;4.05;;;;;;;-0.72;72.21;102024.42;450974;117;922359;-72